Time;durP1;ratioP1;P1;durP2;ratioP2;P2;SDS_P1;SDS_P2;PMS_P1;PMS_P2;Temp;Humidity;BMP_temperature;BMP_pressure;BME280_temperature;BME280_humidity;BME280_pressure;Samples;Min_cycle;Max_cycle;Signal;HPM_P1;HPM_P2
2022/07/11 00:01:51;;;;;;;1.30;0.10;;;15.60;97.70;;;;;;5051693;28;20116;-78
2022/07/11 00:04:17;;;;;;;0.77;0.20;;;15.60;98.60;;;;;;5036644;28;20033;-78
2022/07/11 00:06:43;;;;;;;0.40;0.20;;;15.60;98.70;;;;;;5036304;28;20025;-78
2022/07/11 00:09:08;;;;;;;0.38;0.20;;;15.60;99.00;;;;;;5035997;28;20024;-78
2022/07/11 00:11:34;;;;;;;3.20;0.30;;;15.50;98.50;;;;;;5051858;28;20029;-78
2022/07/11 00:13:59;;;;;;;1.90;0.30;;;15.60;99.00;;;;;;5051931;28;20033;-78
2022/07/11 00:16:25;;;;;;;0.45;0.30;;;15.60;99.20;;;;;;5035262;28;20036;-78
2022/07/11 00:18:51;;;;;;;2.42;0.50;;;15.60;98.80;;;;;;5050911;28;20025;-78
2022/07/11 00:21:16;;;;;;;1.30;0.10;;;15.50;98.80;;;;;;5035439;28;20062;-78
2022/07/11 00:23:43;;;;;;;1.42;0.20;;;15.50;98.80;;;;;;5051381;28;20129;-79
2022/07/11 00:26:09;;;;;;;2.58;0.20;;;15.50;99.00;;;;;;5035665;28;20025;-78
2022/07/11 00:28:34;;;;;;;1.50;0.10;;;15.50;98.70;;;;;;5051352;28;20036;-78
2022/07/11 00:31:00;;;;;;;1.40;0.30;;;15.50;99.10;;;;;;5051229;28;20116;-78
2022/07/11 00:33:26;;;;;;;1.27;0.17;;;15.50;98.90;;;;;;5035940;28;20033;-78
2022/07/11 00:35:51;;;;;;;0.75;0.10;;;15.50;97.80;;;;;;5050869;28;20022;-78
2022/07/11 00:38:17;;;;;;;0.75;0.10;;;15.50;98.10;;;;;;5035607;28;20037;-78
2022/07/11 00:40:42;;;;;;;0.80;0.28;;;15.50;98.50;;;;;;5051009;28;20029;-78
2022/07/11 00:43:08;;;;;;;2.08;0.35;;;15.40;98.70;;;;;;5035669;28;20091;-78
2022/07/11 00:45:34;;;;;;;0.82;0.28;;;15.40;98.30;;;;;;5050913;28;20091;-78
2022/07/11 00:48:00;;;;;;;1.17;0.28;;;15.40;98.70;;;;;;5035523;28;20033;-77
2022/07/11 00:50:25;;;;;;;0.10;0.10;;;15.40;98.70;;;;;;5051260;28;20052;-77
2022/07/11 00:52:52;;;;;;;0.30;0.20;;;15.40;99.00;;;;;;5050858;28;20022;-78
2022/07/11 00:55:19;;;;;;;1.98;0.30;;;15.40;98.70;;;;;;5035411;28;20083;-78
2022/07/11 00:57:46;;;;;;;0.10;0.10;;;15.30;99.20;;;;;;5050786;28;20077;-78
2022/07/11 01:00:12;;;;;;;1.23;0.20;;;15.30;99.50;;;;;;5050869;28;20021;-78
2022/07/11 01:02:38;;;;;;;0.85;0.30;;;15.30;99.80;;;;;;5050842;28;20393;-78
2022/07/11 01:05:05;;;;;;;0.20;0.10;;;15.30;99.40;;;;;;5035269;28;20571;-78
2022/07/11 01:07:31;;;;;;;1.20;0.20;;;15.30;99.70;;;;;;5034883;28;20030;-78
2022/07/11 01:09:57;;;;;;;1.90;0.17;;;15.20;99.90;;;;;;5050591;28;20029;-77
2022/07/11 01:12:23;;;;;;;0.50;0.13;;;15.20;99.90;;;;;;5050682;28;20373;-78
2022/07/11 01:14:56;;;;;;;1.30;0.20;;;15.20;99.90;;;;;;5050367;28;20507;-78
2022/07/11 01:17:22;;;;;;;0.82;0.20;;;15.20;99.90;;;;;;5050328;28;20032;-78
2022/07/11 01:19:47;;;;;;;0.55;0.10;;;15.20;99.90;;;;;;5050330;28;20034;-78
2022/07/11 01:22:20;;;;;;;0.73;0.38;;;15.20;99.90;;;;;;5034901;28;20029;-78
2022/07/11 01:24:46;;;;;;;4.40;0.50;;;15.20;99.90;;;;;;5050176;28;20033;-78
2022/07/11 01:27:12;;;;;;;1.30;0.32;;;15.20;99.90;;;;;;5050234;28;20465;-78
2022/07/11 01:29:39;;;;;;;0.50;0.30;;;15.10;99.90;;;;;;5034752;28;20017;-78
2022/07/11 01:32:06;;;;;;;1.60;0.20;;;15.10;99.90;;;;;;5034403;28;20033;-78
2022/07/11 01:34:32;;;;;;;1.35;0.68;;;15.10;99.90;;;;;;5049975;28;20033;-78
2022/07/11 01:36:57;;;;;;;2.03;0.40;;;15.00;99.90;;;;;;5034642;28;20026;-78
2022/07/11 01:39:23;;;;;;;0.75;0.30;;;15.00;99.90;;;;;;5033346;28;20112;-78
2022/07/11 01:41:49;;;;;;;0.55;0.28;;;14.90;99.90;;;;;;5034479;28;20033;-78
2022/07/11 01:44:14;;;;;;;1.35;0.25;;;14.90;99.90;;;;;;5034529;28;20102;-78
2022/07/11 01:46:40;;;;;;;0.57;0.20;;;14.90;99.90;;;;;;5034170;28;20075;-77
2022/07/11 01:49:06;;;;;;;1.50;0.40;;;14.90;99.90;;;;;;5033199;28;20030;-78
2022/07/11 01:51:33;;;;;;;2.92;0.25;;;14.90;99.90;;;;;;5034423;28;20111;-78
2022/07/11 01:53:59;;;;;;;2.45;0.28;;;14.90;99.90;;;;;;5049800;28;20099;-78
2022/07/11 01:56:27;;;;;;;1.52;0.28;;;14.90;99.90;;;;;;5034264;28;20536;-78
2022/07/11 01:58:52;;;;;;;4.25;0.80;;;14.90;99.90;;;;;;5033070;28;20067;-78
2022/07/11 02:01:18;;;;;;;2.85;1.13;;;14.90;99.90;;;;;;5049543;28;20536;-78
2022/07/11 02:03:44;;;;;;;1.77;0.52;;;14.90;99.90;;;;;;5032933;28;20030;-78
2022/07/11 02:06:10;;;;;;;4.18;0.30;;;14.90;99.90;;;;;;5034173;28;20109;-78
2022/07/11 02:08:36;;;;;;;0.70;0.20;;;14.90;99.90;;;;;;5049180;28;20032;-78
2022/07/11 02:11:02;;;;;;;0.73;0.22;;;14.90;99.90;;;;;;5049163;28;20030;-78
2022/07/11 02:13:28;;;;;;;1.55;0.40;;;14.90;99.90;;;;;;5033537;28;20032;-78
2022/07/11 02:15:53;;;;;;;0.75;0.40;;;14.90;99.90;;;;;;5033985;28;20351;-78
2022/07/11 02:18:20;;;;;;;0.52;0.20;;;14.90;99.90;;;;;;5033981;28;20537;-78
2022/07/11 02:20:48;;;;;;;2.15;0.30;;;14.90;99.90;;;;;;5049216;28;20025;-78
2022/07/11 02:23:14;;;;;;;1.75;0.28;;;14.90;99.90;;;;;;5048973;28;20036;-78
2022/07/11 02:25:40;;;;;;;1.27;0.30;;;14.90;99.90;;;;;;5049247;28;20100;-78
2022/07/11 02:28:09;;;;;;;1.05;0.20;;;14.90;99.90;;;;;;5033891;28;20118;-78
2022/07/11 02:30:41;;;;;;;2.28;0.40;;;14.90;99.90;;;;;;5032578;28;20041;-78
2022/07/11 02:33:07;;;;;;;3.40;0.30;;;14.80;99.90;;;;;;5032819;28;20029;-78
2022/07/11 02:35:34;;;;;;;0.30;0.15;;;14.90;99.90;;;;;;5033873;28;20025;-78
2022/07/11 02:38:00;;;;;;;3.05;0.30;;;14.80;99.90;;;;;;5049096;28;20026;-78
2022/07/11 02:40:29;;;;;;;1.40;0.40;;;14.80;99.90;;;;;;5049238;28;20033;-78
2022/07/11 02:42:55;;;;;;;2.05;0.40;;;14.80;99.90;;;;;;5034899;28;20447;-78
2022/07/11 02:45:21;;;;;;;2.13;0.40;;;14.80;99.90;;;;;;5037883;28;20033;-78
2022/07/11 02:47:47;;;;;;;3.38;0.45;;;14.70;99.90;;;;;;5038064;28;20472;-78
2022/07/11 02:50:13;;;;;;;3.17;0.47;;;14.70;99.90;;;;;;5036486;28;20132;-78
2022/07/11 02:52:41;;;;;;;3.72;0.35;;;14.60;99.90;;;;;;5037999;28;20033;-78
2022/07/11 02:55:08;;;;;;;1.70;0.82;;;14.50;99.90;;;;;;5053049;28;20485;-78
2022/07/11 02:57:35;;;;;;;0.22;0.20;;;14.40;99.90;;;;;;5037118;28;20539;-78
2022/07/11 03:00:04;;;;;;;0.82;0.30;;;14.40;99.90;;;;;;5036816;28;20029;-78
2022/07/11 03:02:29;;;;;;;2.35;0.40;;;14.40;99.90;;;;;;5053347;28;20033;-77
2022/07/11 03:04:55;;;;;;;0.88;0.30;;;14.40;99.90;;;;;;5052828;28;20454;-77
2022/07/11 03:07:20;;;;;;;1.70;0.22;;;14.30;99.90;;;;;;5036147;28;20021;-78
2022/07/11 03:09:46;;;;;;;2.50;0.35;;;14.30;99.90;;;;;;5037368;28;20036;-78
2022/07/11 03:12:12;;;;;;;0.50;0.30;;;14.30;99.90;;;;;;5036127;28;20097;-78
2022/07/11 03:14:37;;;;;;;2.00;0.38;;;14.30;99.90;;;;;;5052713;28;20036;-78
2022/07/11 03:17:03;;;;;;;1.50;0.40;;;14.30;99.90;;;;;;5052209;28;20021;-78
2022/07/11 03:19:29;;;;;;;2.40;0.43;;;14.30;99.90;;;;;;5037394;28;20037;-78
2022/07/11 03:21:54;;;;;;;1.27;0.32;;;14.20;99.90;;;;;;5035507;28;20033;-78
2022/07/11 03:24:20;;;;;;;2.03;0.45;;;14.20;99.90;;;;;;5036842;28;20057;-78
2022/07/11 03:26:45;;;;;;;0.32;0.30;;;14.20;99.90;;;;;;5037125;28;20462;-78
2022/07/11 03:29:11;;;;;;;2.10;0.30;;;14.20;99.90;;;;;;5037359;28;20040;-78
2022/07/11 03:31:37;;;;;;;1.85;0.40;;;14.30;99.90;;;;;;5037015;28;20033;-78
2022/07/11 03:34:02;;;;;;;1.75;0.38;;;14.20;99.90;;;;;;5037509;28;20030;-78
2022/07/11 03:36:28;;;;;;;1.27;0.30;;;14.20;99.90;;;;;;5036846;28;20524;-78
2022/07/11 03:38:53;;;;;;;0.90;0.40;;;14.20;99.90;;;;;;5036850;28;20032;-78
2022/07/11 03:41:19;;;;;;;0.98;0.40;;;14.20;99.90;;;;;;5036477;28;20064;-78
2022/07/11 03:43:45;;;;;;;0.63;0.30;;;14.20;99.90;;;;;;5036808;28;20044;-78
2022/07/11 03:46:10;;;;;;;1.35;0.20;;;14.10;99.90;;;;;;5037058;28;20026;-78
2022/07/11 03:48:36;;;;;;;0.98;0.30;;;14.10;99.90;;;;;;5035383;28;20378;-78
2022/07/11 03:51:01;;;;;;;0.40;0.32;;;14.10;99.90;;;;;;5036315;28;20033;-78
2022/07/11 03:53:27;;;;;;;2.35;0.40;;;14.10;99.90;;;;;;5036136;28;20038;-79
2022/07/11 03:55:53;;;;;;;7.25;0.73;;;14.10;99.90;;;;;;5036227;28;20026;-79
2022/07/11 03:58:18;;;;;;;0.63;0.30;;;14.10;99.90;;;;;;5036457;28;20461;-79
2022/07/11 04:00:44;;;;;;;2.38;0.45;;;14.10;99.90;;;;;;5035392;28;20124;-79
2022/07/11 04:03:11;;;;;;;1.90;0.57;;;14.10;99.90;;;;;;5036282;28;20042;-79
2022/07/11 04:05:36;;;;;;;1.75;0.22;;;14.10;99.90;;;;;;5036617;28;20075;-79
2022/07/11 04:08:02;;;;;;;0.52;0.40;;;14.20;99.90;;;;;;5036020;28;20100;-79
2022/07/11 04:10:28;;;;;;;2.22;0.40;;;14.20;99.90;;;;;;5036258;28;20030;-79
2022/07/11 04:12:54;;;;;;;2.72;0.55;;;14.20;99.90;;;;;;5036507;28;20030;-79
2022/07/11 04:15:19;;;;;;;0.90;0.30;;;14.20;99.90;;;;;;5036143;28;20025;-79
2022/07/11 04:17:45;;;;;;;3.83;0.50;;;14.30;99.90;;;;;;5036401;28;20038;-79
2022/07/11 04:20:11;;;;;;;2.05;0.60;;;14.30;99.90;;;;;;5035728;28;20393;-78
2022/07/11 04:22:36;;;;;;;2.90;0.73;;;14.40;99.90;;;;;;5034687;28;20385;-79
2022/07/11 04:25:03;;;;;;;2.25;0.35;;;14.40;99.90;;;;;;5036022;28;20026;-79
2022/07/11 04:27:29;;;;;;;1.35;0.35;;;14.40;99.90;;;;;;5035808;28;20092;-79
2022/07/11 04:29:55;;;;;;;2.47;0.40;;;14.50;99.90;;;;;;5034569;28;20037;-80
2022/07/11 04:32:20;;;;;;;2.05;0.30;;;14.50;99.90;;;;;;5035496;28;20036;-79
2022/07/11 04:34:46;;;;;;;3.20;0.40;;;14.60;99.90;;;;;;5035782;28;20022;-79
2022/07/11 04:37:12;;;;;;;1.73;0.30;;;14.60;99.90;;;;;;5051161;28;20428;-79
2022/07/11 04:39:37;;;;;;;3.63;0.45;;;14.70;99.90;;;;;;5035483;28;20048;-81
2022/07/11 04:42:06;;;;;;;1.65;0.30;;;14.70;99.90;;;;;;5034378;28;20116;-81
2022/07/11 04:44:32;;;;;;;1.38;0.20;;;14.70;99.90;;;;;;5050900;28;20030;-79
2022/07/11 04:46:58;;;;;;;1.00;0.30;;;14.70;99.90;;;;;;5034242;28;20425;-78
2022/07/11 04:49:23;;;;;;;2.28;0.20;;;14.70;99.90;;;;;;5034362;28;20029;-62
2022/07/11 04:51:49;;;;;;;7.57;0.35;;;14.80;99.90;;;;;;5035675;28;20075;-63
2022/07/11 04:54:15;;;;;;;0.55;0.32;;;14.80;99.90;;;;;;5035215;28;20036;-62
2022/07/11 04:56:41;;;;;;;1.08;0.22;;;14.90;99.90;;;;;;5035308;28;20025;-62
2022/07/11 04:59:07;;;;;;;0.55;0.20;;;15.00;99.90;;;;;;5035679;28;20442;-62
2022/07/11 05:01:34;;;;;;;1.55;0.40;;;15.10;99.90;;;;;;5035104;28;20090;-62
2022/07/11 05:04:00;;;;;;;0.95;0.20;;;15.20;99.90;;;;;;5035117;28;20033;-62
2022/07/11 05:06:26;;;;;;;2.05;0.30;;;15.30;99.90;;;;;;5034553;28;20029;-62
2022/07/11 05:08:51;;;;;;;0.35;0.35;;;15.60;99.90;;;;;;5035058;28;20021;-81
2022/07/11 05:11:17;;;;;;;3.55;0.50;;;15.70;99.90;;;;;;5051375;28;20056;-80
2022/07/11 05:13:42;;;;;;;3.40;0.40;;;15.70;99.90;;;;;;5050321;28;20466;-76
2022/07/11 05:16:08;;;;;;;0.45;0.20;;;15.80;99.90;;;;;;5033766;28;20076;-75
2022/07/11 05:18:34;;;;;;;1.23;0.32;;;16.00;99.90;;;;;;5050577;28;20386;-76
2022/07/11 05:20:59;;;;;;;2.30;0.25;;;16.00;99.90;;;;;;5034752;28;20457;-79
2022/07/11 05:23:25;;;;;;;0.50;0.30;;;16.10;99.90;;;;;;5034672;28;20038;-81
2022/07/11 05:25:50;;;;;;;2.17;0.63;;;16.20;99.90;;;;;;5034979;28;20048;-79
2022/07/11 05:28:16;;;;;;;1.77;0.52;;;16.20;99.90;;;;;;5050227;28;20031;-79
2022/07/11 05:30:42;;;;;;;1.20;0.35;;;16.30;99.90;;;;;;5034404;28;20108;-79
2022/07/11 05:33:07;;;;;;;1.13;0.40;;;16.30;99.90;;;;;;5049915;28;20033;-80
2022/07/11 05:35:33;;;;;;;1.90;0.40;;;16.30;99.90;;;;;;5034788;28;20025;-79
2022/07/11 05:37:58;;;;;;;0.63;0.20;;;16.30;99.90;;;;;;5050125;28;20033;-80
2022/07/11 05:40:24;;;;;;;3.72;0.32;;;16.30;99.90;;;;;;5033733;28;20484;-80
2022/07/11 05:42:50;;;;;;;1.30;0.43;;;16.20;99.90;;;;;;5050057;28;20432;-81
2022/07/11 05:45:15;;;;;;;0.93;0.43;;;16.10;99.90;;;;;;5034006;28;20025;-82
2022/07/11 05:47:41;;;;;;;1.48;0.30;;;16.00;99.90;;;;;;5034207;28;20104;-79
2022/07/11 05:50:07;;;;;;;1.90;0.38;;;16.00;99.90;;;;;;5049821;28;20031;-80
2022/07/11 05:52:32;;;;;;;1.10;0.30;;;16.00;99.90;;;;;;5034433;28;20354;-80
2022/07/11 05:54:58;;;;;;;0.55;0.30;;;16.00;99.90;;;;;;5049613;28;20029;-80
2022/07/11 05:57:24;;;;;;;1.52;0.73;;;16.00;99.90;;;;;;5033993;28;20029;-80
2022/07/11 05:59:50;;;;;;;1.60;0.30;;;16.00;99.90;;;;;;5034318;28;20431;-80
2022/07/11 06:02:16;;;;;;;2.38;0.20;;;16.00;99.90;;;;;;5034377;28;20033;-80
2022/07/11 06:04:42;;;;;;;6.32;0.90;;;16.10;99.90;;;;;;5033214;28;20119;-80
2022/07/11 06:07:08;;;;;;;1.50;0.50;;;16.10;99.90;;;;;;5033197;28;20116;-80
2022/07/11 06:09:35;;;;;;;0.65;0.32;;;16.20;99.90;;;;;;5049406;28;20134;-79
2022/07/11 06:12:00;;;;;;;4.80;0.57;;;16.20;99.90;;;;;;5049798;28;20025;-80
2022/07/11 06:14:26;;;;;;;7.18;0.98;;;16.30;99.90;;;;;;5033955;28;20101;-79
2022/07/11 06:16:52;;;;;;;1.65;0.50;;;16.40;99.90;;;;;;5048792;28;20056;-80
2022/07/11 06:19:18;;;;;;;1.40;0.30;;;16.70;99.90;;;;;;5033255;28;20029;-80
2022/07/11 06:21:43;;;;;;;1.85;0.32;;;17.20;99.90;;;;;;5033906;28;20481;-80
2022/07/11 06:24:09;;;;;;;2.92;0.38;;;17.50;99.90;;;;;;5032490;28;20131;-80
2022/07/11 06:26:35;;;;;;;2.55;0.30;;;17.70;99.90;;;;;;5033736;28;20465;-79
2022/07/11 06:29:01;;;;;;;0.60;0.35;;;17.50;99.90;;;;;;5049126;28;20025;-80
2022/07/11 06:31:27;;;;;;;1.48;0.30;;;17.10;99.90;;;;;;5049672;28;20029;-80
2022/07/11 06:33:57;;;;;;;2.17;0.40;;;16.90;99.90;;;;;;5033981;28;20473;-80
2022/07/11 06:36:23;;;;;;;2.30;0.40;;;16.80;99.90;;;;;;5049113;28;20469;-80
2022/07/11 06:38:50;;;;;;;5.68;0.52;;;16.70;99.90;;;;;;5049244;28;20026;-79
2022/07/11 06:41:15;;;;;;;1.20;0.60;;;16.70;99.90;;;;;;5033689;28;20033;-80
2022/07/11 06:43:41;;;;;;;0.98;0.13;;;16.80;99.90;;;;;;5033598;28;20500;-80
2022/07/11 06:46:07;;;;;;;1.10;0.20;;;16.90;99.90;;;;;;5033863;28;20072;-79
2022/07/11 06:48:32;;;;;;;2.05;0.30;;;17.20;99.90;;;;;;5033926;28;20030;-83
2022/07/11 06:50:58;;;;;;;2.33;0.30;;;17.50;99.90;;;;;;5032519;28;20607;-83
2022/07/11 06:53:24;;;;;;;2.80;0.20;;;17.70;99.90;;;;;;5034051;28;20160;-84
2022/07/11 06:55:49;;;;;;;1.75;0.45;;;17.80;99.90;;;;;;5032552;28;20022;-82
2022/07/11 06:58:31;;;;;;;2.40;0.40;;;18.00;99.90;;;;;;5033302;28;20115;-82
2022/07/11 07:01:02;;;;;;;7.68;0.52;;;17.80;99.60;;;;;;5032374;28;20033;-81
2022/07/11 07:03:29;;;;;;;1.77;0.45;;;17.80;99.90;;;;;;5033802;28;20389;-80
2022/07/11 07:05:56;;;;;;;0.77;0.60;;;17.70;99.90;;;;;;5048881;28;20029;-80
2022/07/11 07:08:26;;;;;;;3.50;0.43;;;17.80;99.90;;;;;;5033386;28;20043;-79
2022/07/11 07:10:53;;;;;;;1.15;0.30;;;18.10;99.50;;;;;;5048775;28;20033;-80
2022/07/11 07:13:20;;;;;;;2.53;0.38;;;18.10;99.00;;;;;;5048782;28;20029;-80
2022/07/11 07:15:46;;;;;;;0.90;0.22;;;18.00;99.20;;;;;;5033430;28;20091;-80
2022/07/11 07:18:12;;;;;;;0.60;0.20;;;18.00;99.40;;;;;;5033008;28;20401;-80
2022/07/11 07:20:38;;;;;;;2.90;0.47;;;18.00;99.90;;;;;;5048658;28;20033;-81
2022/07/11 07:23:04;;;;;;;3.55;0.30;;;17.80;99.90;;;;;;5033294;28;20448;-80
2022/07/11 07:25:29;;;;;;;2.75;0.38;;;17.90;99.90;;;;;;5048823;28;20032;-72
2022/07/11 07:27:55;;;;;;;2.25;0.30;;;18.50;99.90;;;;;;5033451;28;20487;-73
2022/07/11 07:30:21;;;;;;;1.52;0.40;;;19.00;98.20;;;;;;5035173;28;20025;-73
2022/07/11 07:32:46;;;;;;;3.03;0.40;;;18.80;97.60;;;;;;5051902;28;20053;-74
2022/07/11 07:35:12;;;;;;;1.60;0.60;;;18.40;98.30;;;;;;5036905;28;20033;-73
2022/07/11 07:37:38;;;;;;;2.25;0.60;;;18.10;98.90;;;;;;5036519;28;20461;-72
2022/07/11 07:40:04;;;;;;;4.25;0.70;;;18.00;99.70;;;;;;5052074;28;20036;-73
2022/07/11 07:42:29;;;;;;;1.67;0.50;;;17.90;99.20;;;;;;5036658;28;20370;-73
2022/07/11 07:44:55;;;;;;;2.58;1.10;;;17.70;99.30;;;;;;5051865;28;20036;-74
2022/07/11 07:47:21;;;;;;;3.50;0.70;;;17.60;99.90;;;;;;5036849;28;20025;-74
2022/07/11 07:49:46;;;;;;;5.35;0.93;;;17.50;99.90;;;;;;5036196;28;20029;-62
2022/07/11 07:52:12;;;;;;;4.05;1.13;;;17.40;99.90;;;;;;5036493;28;20079;-61
2022/07/11 07:54:38;;;;;;;2.25;0.57;;;17.40;99.90;;;;;;5051845;28;20043;-77
2022/07/11 07:57:04;;;;;;;1.48;0.47;;;17.50;99.90;;;;;;5051804;28;20030;-77
2022/07/11 07:59:30;;;;;;;1.13;0.43;;;17.50;99.90;;;;;;5051616;28;20497;-62
2022/07/11 08:01:55;;;;;;;2.70;0.50;;;17.40;99.90;;;;;;5036325;28;20381;-60
2022/07/11 08:04:21;;;;;;;3.47;0.47;;;17.50;99.90;;;;;;5036307;28;20055;-60
2022/07/11 08:06:46;;;;;;;2.88;0.73;;;17.60;99.90;;;;;;5036301;28;20446;-60
2022/07/11 08:09:12;;;;;;;2.75;1.40;;;17.70;99.90;;;;;;5036226;28;20033;-60
2022/07/11 08:11:38;;;;;;;3.58;1.02;;;17.80;99.90;;;;;;5035918;28;20471;-60
2022/07/11 08:14:07;;;;;;;3.03;0.30;;;17.90;99.90;;;;;;5035852;28;20087;-60
2022/07/11 08:16:33;;;;;;;;;;;18.00;99.20;;;;;;5036483;28;20033;-60
2022/07/11 08:19:03;;;;;;;3.50;0.68;;;18.20;98.40;;;;;;5036243;28;19905;-60
2022/07/11 08:21:29;;;;;;;2.15;0.40;;;18.30;97.80;;;;;;5036490;28;20042;-60
2022/07/11 08:23:56;;;;;;;3.60;0.55;;;18.50;97.40;;;;;;5035946;28;20041;-60
2022/07/11 08:26:22;;;;;;;1.48;0.40;;;18.60;96.80;;;;;;5035930;28;20444;-60
2022/07/11 08:28:48;;;;;;;2.90;0.35;;;19.00;99.20;;;;;;5035907;28;20053;-60
2022/07/11 08:31:14;;;;;;;4.32;0.30;;;19.10;94.30;;;;;;5035564;28;20029;-60
2022/07/11 08:33:39;;;;;;;3.40;0.35;;;19.00;94.50;;;;;;5035536;28;20026;-60
2022/07/11 08:36:06;;;;;;;2.47;0.30;;;18.90;94.30;;;;;;5035721;28;20026;-60
2022/07/11 08:38:32;;;;;;;5.32;1.13;;;18.80;94.30;;;;;;5035673;28;20025;-60
2022/07/11 08:40:57;;;;;;;2.40;0.47;;;18.90;94.70;;;;;;5034898;28;20033;-60
2022/07/11 08:43:30;;;;;;;2.38;0.40;;;18.90;94.50;;;;;;5036049;28;20029;-60
2022/07/11 08:45:57;;;;;;;2.53;0.50;;;18.90;94.60;;;;;;5036009;28;20032;-61
2022/07/11 08:48:23;;;;;;;4.60;0.50;;;19.10;94.10;;;;;;5036209;28;20060;-63
2022/07/11 08:50:50;;;;;;;4.32;0.63;;;19.40;94.30;;;;;;5035201;28;20389;-79
2022/07/11 08:53:16;;;;;;;1.67;1.13;;;19.60;92.40;;;;;;5035484;28;20033;-79
2022/07/11 08:55:42;;;;;;;4.30;1.35;;;19.90;91.90;;;;;;5035577;28;20033;-79
2022/07/11 08:58:09;;;;;;;1.83;0.60;;;20.30;91.40;;;;;;5034870;28;20056;-64
2022/07/11 09:00:36;;;;;;;1.77;0.50;;;21.50;89.10;;;;;;5050560;28;20029;-64
2022/07/11 09:03:02;;;;;;;1.52;0.47;;;22.00;80.10;;;;;;5035481;28;20022;-65
2022/07/11 09:05:28;;;;;;;4.03;0.35;;;22.30;77.70;;;;;;5035170;28;20101;-65
2022/07/11 09:07:54;;;;;;;2.28;0.57;;;21.90;75.00;;;;;;5035109;28;20128;-64
2022/07/11 09:10:20;;;;;;;2.25;0.25;;;21.70;75.50;;;;;;5035373;28;20113;-82
2022/07/11 09:13:10;;;;;;;3.17;0.50;;;21.20;68.20;;;;;;5050194;28;20029;-79
2022/07/11 09:15:45;;;;;;;2.25;0.50;;;20.80;69.90;;;;;;5035047;28;20036;-81
2022/07/11 09:18:28;;;;;;;2.75;0.73;;;21.10;71.10;;;;;;5035086;28;20022;-81
2022/07/11 09:26:45;;;;;;;2.83;0.52;;;22.70;66.30;;;;;;5034806;28;20036;-59
2022/07/11 09:29:13;;;;;;;4.10;0.50;;;23.30;64.50;;;;;;5034782;28;20061;-58
2022/07/11 09:31:41;;;;;;;5.30;0.73;;;23.60;62.10;;;;;;5034535;28;20029;-58
2022/07/11 09:34:08;;;;;;;1.45;0.30;;;23.90;61.90;;;;;;5034682;28;20088;-59
2022/07/11 09:36:55;;;;;;;1.52;0.60;;;24.40;58.50;;;;;;5034528;28;20303;-59
2022/07/11 09:39:22;;;;;;;4.15;0.70;;;25.20;54.50;;;;;;5034437;28;20030;-58
2022/07/11 09:41:51;;;;;;;3.08;0.43;;;25.70;53.40;;;;;;5034469;28;20061;-59
2022/07/11 09:44:20;;;;;;;1.23;0.43;;;25.90;49.80;;;;;;5034447;28;20052;-59
2022/07/11 09:46:51;;;;;;;2.75;0.50;;;25.30;50.90;;;;;;5034394;28;20029;-59
2022/07/11 09:49:38;;;;;;;1.90;1.00;;;25.40;51.40;;;;;;5034583;28;20163;-59
2022/07/11 09:52:09;;;;;;;2.83;0.43;;;25.40;50.20;;;;;;5034472;28;20034;-59
2022/07/11 09:54:56;;;;;;;2.17;0.47;;;25.70;51.60;;;;;;5034258;28;20032;-59
2022/07/11 09:57:36;;;;;;;4.40;0.60;;;26.20;50.20;;;;;;5034300;28;20037;-75
2022/07/11 10:00:04;;;;;;;2.30;0.80;;;26.30;50.40;;;;;;5034289;28;20116;-59
2022/07/11 10:02:30;;;;;;;3.50;0.50;;;26.60;50.10;;;;;;5034022;28;20072;-60
2022/07/11 10:04:59;;;;;;;1.00;0.40;;;26.30;49.30;;;;;;5034266;28;20056;-59
2022/07/11 10:07:25;;;;;;;3.00;0.70;;;25.70;49.50;;;;;;5034381;28;20032;-59
2022/07/11 10:09:50;;;;;;;1.90;0.40;;;25.40;50.40;;;;;;5034020;28;20384;-59
2022/07/11 10:12:17;;;;;;;1.13;0.32;;;25.20;51.00;;;;;;5033897;28;20033;-59
2022/07/11 10:14:43;;;;;;;1.35;0.43;;;24.30;51.60;;;;;;5034013;28;20108;-61
2022/07/11 10:17:49;;;;;;;1.30;0.57;;;23.80;53.20;;;;;;5033906;28;20029;-59
2022/07/11 10:20:33;;;;;;;3.35;0.47;;;23.30;54.10;;;;;;5034042;28;20473;-59
2022/07/11 10:23:17;;;;;;;3.00;0.80;;;22.70;55.70;;;;;;5033952;28;20481;-59
2022/07/11 10:25:58;;;;;;;1.35;0.38;;;22.80;56.80;;;;;;5034297;28;20427;-60
2022/07/11 10:28:24;;;;;;;2.28;0.47;;;23.20;56.30;;;;;;5033940;28;20057;-60
2022/07/11 10:30:54;;;;;;;4.03;0.55;;;23.50;54.80;;;;;;5033743;28;20072;-59
2022/07/11 10:33:20;;;;;;;1.45;0.52;;;23.40;55.10;;;;;;5034226;28;20036;-59
2022/07/11 10:35:49;;;;;;;0.93;0.30;;;22.80;54.20;;;;;;5048997;28;20455;-60
2022/07/11 10:38:16;;;;;;;1.48;0.60;;;22.50;56.00;;;;;;5033298;28;20029;-60
2022/07/11 10:40:45;;;;;;;2.22;0.50;;;22.40;57.10;;;;;;5033633;28;20489;-60
2022/07/11 10:43:12;;;;;;;1.42;0.45;;;22.50;57.90;;;;;;5033673;28;20083;-59
2022/07/11 10:45:56;;;;;;;2.40;1.15;;;23.00;56.70;;;;;;5048997;28;20454;-60
2022/07/11 10:48:22;;;;;;;5.57;0.50;;;23.00;54.60;;;;;;5034040;28;20072;-60
2022/07/11 10:51:13;;;;;;;1.40;0.30;;;22.70;55.00;;;;;;5033595;28;20064;-60
2022/07/11 10:53:47;;;;;;;3.92;0.55;;;22.50;55.20;;;;;;5033015;28;20045;-60
2022/07/11 10:56:28;;;;;;;1.13;0.45;;;22.40;55.00;;;;;;5033532;28;20032;-59
2022/07/11 10:59:20;;;;;;;2.50;0.50;;;22.40;54.70;;;;;;5033544;28;20053;-59
2022/07/11 11:02:11;;;;;;;1.52;0.35;;;22.30;55.50;;;;;;5033223;28;20076;-59
2022/07/11 11:04:50;;;;;;;1.85;0.40;;;22.80;55.20;;;;;;5035854;28;20061;-60
2022/07/11 11:07:40;;;;;;;1.20;0.22;;;23.20;54.80;;;;;;5037464;28;20029;-59
2022/07/11 11:10:29;;;;;;;0.63;0.32;;;23.40;54.00;;;;;;5037345;28;20116;-60
2022/07/11 11:13:09;;;;;;;1.10;0.20;;;24.20;52.60;;;;;;5036827;28;20057;-60
2022/07/11 11:15:49;;;;;;;0.55;0.10;;;24.40;51.20;;;;;;5037202;28;20057;-59
2022/07/11 11:18:24;;;;;;;1.00;0.20;;;23.90;52.00;;;;;;5037164;28;20017;-59
2022/07/11 11:21:00;;;;;;;1.90;0.38;;;23.40;55.10;;;;;;5035788;28;20420;-59
2022/07/11 11:23:33;;;;;;;3.58;0.38;;;23.10;59.70;;;;;;5037069;28;20071;-59
2022/07/11 11:26:11;;;;;;;0.35;0.15;;;22.70;61.60;;;;;;5037636;28;20057;-59
2022/07/11 11:28:53;;;;;;;1.08;0.40;;;22.40;62.70;;;;;;5037947;28;20373;-59
2022/07/11 11:31:20;;;;;;;4.65;0.47;;;22.20;64.50;;;;;;5037047;28;20049;-60
2022/07/11 11:33:47;;;;;;;3.25;0.20;;;22.10;66.30;;;;;;5036860;28;20545;-59
2022/07/11 11:36:16;;;;;;;1.80;0.50;;;22.40;63.30;;;;;;5036601;28;20377;-59
2022/07/11 11:38:45;;;;;;;1.70;0.47;;;22.20;64.20;;;;;;5037111;28;20037;-59
2022/07/11 11:41:13;;;;;;;2.63;0.50;;;22.10;63.10;;;;;;5036664;28;20030;-60
2022/07/11 11:43:44;;;;;;;3.07;0.30;;;21.70;64.10;;;;;;5036911;28;20037;-59
2022/07/11 11:46:12;;;;;;;1.02;0.40;;;21.60;64.80;;;;;;5037063;28;20022;-59
2022/07/11 11:48:39;;;;;;;2.63;0.80;;;21.60;64.80;;;;;;5036943;28;20032;-59
2022/07/11 11:51:13;;;;;;;1.17;0.20;;;21.60;66.40;;;;;;5036670;28;20026;-60
2022/07/11 11:53:53;;;;;;;2.38;0.30;;;22.00;66.90;;;;;;5036591;28;20029;-60
2022/07/11 11:56:28;;;;;;;1.13;0.30;;;23.30;64.90;;;;;;5036402;28;20022;-59
2022/07/11 11:59:00;;;;;;;0.20;0.20;;;24.10;61.60;;;;;;5036272;28;20054;-60
2022/07/11 12:01:31;;;;;;;2.58;0.55;;;24.30;61.40;;;;;;5036384;28;20120;-60
2022/07/11 12:04:01;;;;;;;0.43;0.38;;;23.70;62.20;;;;;;5036804;28;20026;-60
2022/07/11 12:06:33;;;;;;;1.60;0.22;;;23.20;63.90;;;;;;5036575;28;20061;-59
2022/07/11 12:09:00;;;;;;;0.30;0.20;;;23.30;63.70;;;;;;5035984;28;20025;-60
2022/07/11 12:11:27;;;;;;;1.95;0.20;;;24.10;63.10;;;;;;5036184;28;20393;-60
2022/07/11 12:14:01;;;;;;;1.17;0.30;;;25.00;61.10;;;;;;5036069;28;20030;-59
2022/07/11 12:16:43;;;;;;;0.35;0.17;;;26.00;58.10;;;;;;5035050;28;20032;-60
2022/07/11 12:19:12;;;;;;;2.75;0.20;;;26.70;56.40;;;;;;5036090;28;20041;-60
2022/07/11 12:21:40;;;;;;;0.60;0.20;;;27.20;54.80;;;;;;5035920;28;20037;-60
2022/07/11 12:24:08;;;;;;;2.25;0.40;;;27.50;52.10;;;;;;5035938;28;20036;-60
2022/07/11 12:26:37;;;;;;;0.35;0.17;;;26.40;51.10;;;;;;5036139;28;20033;-60
2022/07/11 12:29:16;;;;;;;1.80;0.28;;;26.90;52.00;;;;;;5051248;28;20116;-60
2022/07/11 12:31:56;;;;;;;1.27;0.30;;;26.60;52.40;;;;;;5036124;28;20061;-60
2022/07/11 12:34:22;;;;;;;0.93;0.38;;;25.80;49.60;;;;;;5035876;28;20037;-60
2022/07/11 12:36:49;;;;;;;2.08;0.17;;;25.40;53.30;;;;;;5035469;28;20057;-60
2022/07/11 12:39:26;;;;;;;1.58;0.10;;;25.90;51.80;;;;;;5035733;28;20022;-60
2022/07/11 12:41:56;;;;;;;0.32;0.10;;;26.50;51.00;;;;;;5035617;28;20033;-60
2022/07/11 12:47:17;;;;;;;0.85;0.30;;;26.10;46.20;;;;;;5055656;28;20074;-60
2022/07/11 12:49:46;;;;;;;1.10;0.20;;;25.40;47.90;;;;;;5055183;28;20385;-60
2022/07/11 12:52:13;;;;;;;1.38;0.45;;;24.60;47.30;;;;;;5055382;28;20397;-60
2022/07/11 12:54:39;;;;;;;0.73;0.25;;;24.20;48.40;;;;;;5055378;28;20025;-60
2022/07/11 12:57:06;;;;;;;2.70;0.22;;;24.10;48.80;;;;;;5055329;28;20114;-60
2022/07/11 12:59:34;;;;;;;0.65;0.20;;;23.90;48.80;;;;;;5055375;28;20045;-60
2022/07/11 13:02:08;;;;;;;0.95;0.20;;;23.40;48.50;;;;;;5054906;28;20120;-60